Time;durP1;ratioP1;P1;durP2;ratioP2;P2;SDS_P1;SDS_P2;PMS_P1;PMS_P2;Temp;Humidity;BMP_temperature;BMP_pressure;BME280_temperature;BME280_humidity;BME280_pressure;Samples;Min_cycle;Max_cycle;Signal;HPM_P1;HPM_P2
2021/03/10 00:00:18;;;;;;;59.65;20.30;;;;;;;-4.39;62.83;99326.16;2178466;81;21316;-68
2021/03/10 00:03:22;;;;;;;62.43;21.60;;;;;;;-4.53;62.85;99323.05;2178582;81;21088;-67
2021/03/10 00:06:24;;;;;;;62.88;21.02;;;;;;;-4.59;62.92;99320.88;2178620;81;21281;-67
2021/03/10 00:09:26;;;;;;;61.02;20.80;;;;;;;-4.62;63.08;99323.42;2178488;81;21299;-69
2021/03/10 00:12:28;;;;;;;55.35;19.23;;;;;;;-4.69;62.96;99325.06;2150716;82;21280;-66
2021/03/10 00:15:30;;;;;;;108.27;38.05;;;;;;;-4.63;63.02;99321.70;2178480;81;21304;-67
2021/03/10 00:18:32;;;;;;;131.05;41.48;;;;;;;-4.63;62.96;99324.27;2178461;81;21308;-66
2021/03/10 00:21:34;;;;;;;;;;;;;;;-4.62;63.28;99318.30;2181048;82;21590;-67
2021/03/10 00:24:36;;;;;;;70.85;24.80;;;;;;;-4.55;63.44;99316.23;2150908;82;20440;-64
2021/03/10 00:27:38;;;;;;;71.45;25.32;;;;;;;-4.50;63.48;99317.53;2178573;81;21601;-65
2021/03/10 00:30:40;;;;;;;78.72;29.60;;;;;;;-4.45;63.30;99318.41;2178527;81;21709;-65
2021/03/10 00:33:42;;;;;;;78.70;29.40;;;;;;;-4.40;63.23;99321.44;2178422;81;21717;-65
2021/03/10 00:36:44;;;;;;;79.07;27.62;;;;;;;-4.36;63.25;99312.94;2178562;81;21753;-65
2021/03/10 00:39:46;;;;;;;80.47;28.38;;;;;;;-4.28;63.43;99319.41;2178400;81;21736;-64
2021/03/10 00:42:48;;;;;;;80.65;28.20;;;;;;;-4.30;63.45;99309.56;2178511;81;21744;-65
2021/03/10 00:45:50;;;;;;;76.87;28.55;;;;;;;-4.34;63.62;99306.55;2163786;81;21179;-65
2021/03/10 00:48:52;;;;;;;75.92;26.90;;;;;;;-4.54;63.73;99303.44;2161019;82;21187;-64
2021/03/10 00:51:54;;;;;;;70.80;26.00;;;;;;;-4.59;63.86;99302.53;2161006;82;21143;-65
2021/03/10 00:54:56;;;;;;;69.45;25.15;;;;;;;-4.60;64.00;99302.52;2161038;82;21574;-69
2021/03/10 00:57:59;;;;;;;70.45;25.08;;;;;;;-4.59;64.25;99291.00;2160846;82;21749;-71
2021/03/10 01:01:01;;;;;;;85.80;29.48;;;;;;;-4.55;64.23;99291.91;2160965;82;21647;-69
2021/03/10 01:04:03;;;;;;;78.15;27.93;;;;;;;-4.53;64.08;99279.52;2161024;82;21146;-69
2021/03/10 01:07:05;;;;;;;74.27;26.85;;;;;;;-4.56;64.03;99282.50;2161046;82;21311;-66
2021/03/10 01:10:08;;;;;;;67.00;23.52;;;;;;;-4.67;64.32;99280.27;2140293;82;21194;-68
2021/03/10 01:13:10;;;;;;;65.83;22.55;;;;;;;-4.71;64.77;99276.41;2161056;82;21153;-67
2021/03/10 01:16:12;;;;;;;62.70;22.82;;;;;;;-4.92;65.18;99271.13;2161045;82;21598;-65
2021/03/10 01:19:14;;;;;;;61.37;22.15;;;;;;;-5.08;65.28;99271.41;2161111;82;21282;-65
2021/03/10 01:22:16;;;;;;;56.75;19.40;;;;;;;-5.17;65.43;99274.74;2140076;82;21273;-65
2021/03/10 01:25:18;;;;;;;57.17;20.77;;;;;;;-5.34;66.08;99277.13;2161258;82;21730;-68
2021/03/10 01:28:21;;;;;;;59.25;21.65;;;;;;;-5.50;66.27;99267.56;2161109;82;21713;-64
2021/03/10 01:31:23;;;;;;;61.58;22.25;;;;;;;-5.46;66.10;99262.52;2161194;82;21729;-65
2021/03/10 01:34:25;;;;;;;65.85;23.67;;;;;;;-5.36;65.81;99263.45;2161210;82;21733;-64
2021/03/10 01:37:27;;;;;;;69.22;27.05;;;;;;;-5.25;65.67;99264.41;2161328;82;21717;-64
2021/03/10 01:40:29;;;;;;;75.35;27.15;;;;;;;-5.19;65.11;99262.34;2161178;82;21305;-64
2021/03/10 01:43:31;;;;;;;66.55;22.20;;;;;;;-5.25;65.32;99259.30;2161203;82;21281;-64
2021/03/10 01:46:33;;;;;;;61.20;21.75;;;;;;;-5.29;65.42;99252.44;2161366;81;21174;-65
2021/03/10 01:49:35;;;;;;;75.00;25.35;;;;;;;-5.33;65.27;99252.40;2161221;82;21285;-64
2021/03/10 01:52:37;;;;;;;69.97;25.12;;;;;;;-5.38;65.36;99252.80;2161411;82;21301;-64
2021/03/10 01:55:39;;;;;;;62.35;22.65;;;;;;;-5.35;65.49;99249.83;2161151;82;21282;-64
2021/03/10 01:58:41;;;;;;;59.90;19.87;;;;;;;-5.29;65.51;99247.32;2161182;82;21298;-64
2021/03/10 02:01:43;;;;;;;57.23;22.48;;;;;;;-5.26;65.17;99248.66;2161196;82;21269;-64
2021/03/10 02:04:45;;;;;;;53.73;21.40;;;;;;;-5.33;64.98;99243.05;2161214;82;21713;-64
2021/03/10 02:07:47;;;;;;;89.85;27.82;;;;;;;-5.48;65.65;99246.72;2161216;82;21269;-64
2021/03/10 02:10:49;;;;;;;78.92;26.23;;;;;;;-5.59;66.07;99242.76;2161014;82;21269;-64
2021/03/10 02:13:51;;;;;;;70.97;23.87;;;;;;;-5.57;66.29;99244.92;2161235;82;21281;-64
2021/03/10 02:16:53;;;;;;;68.35;23.00;;;;;;;-5.45;66.29;99245.47;2161150;82;21539;-64
2021/03/10 02:19:55;;;;;;;63.87;21.73;;;;;;;-5.50;65.87;99247.11;2161100;82;21717;-64
2021/03/10 02:22:57;;;;;;;57.17;19.17;;;;;;;-5.74;65.99;99251.12;2161086;82;21289;-69
2021/03/10 02:25:59;;;;;;;60.67;21.62;;;;;;;-5.89;66.07;99248.38;2161474;82;21277;-70
2021/03/10 02:29:01;;;;;;;68.52;22.02;;;;;;;-5.90;66.17;99246.26;2161522;82;21285;-66
2021/03/10 02:32:03;;;;;;;71.22;23.20;;;;;;;-5.95;66.27;99247.89;2161376;82;21265;-67
2021/03/10 02:35:05;;;;;;;67.72;25.72;;;;;;;-5.98;65.92;99248.73;2140230;82;21266;-67
2021/03/10 02:38:07;;;;;;;91.90;31.87;;;;;;;-6.03;66.03;99247.84;2161236;82;21254;-65
2021/03/10 02:41:09;;;;;;;84.13;27.42;;;;;;;-6.08;66.31;99249.89;2161120;82;21304;-68
2021/03/10 02:44:11;;;;;;;84.65;29.60;;;;;;;-6.10;66.72;99254.55;2162629;81;21586;-70
2021/03/10 02:47:13;;;;;;;85.20;29.92;;;;;;;-6.13;66.49;99254.52;2178575;81;21708;-70
2021/03/10 02:50:16;;;;;;;87.02;30.15;;;;;;;-6.23;66.47;99261.63;2178488;81;21724;-69
2021/03/10 02:53:17;;;;;;;108.60;36.33;;;;;;;-6.19;66.61;99266.34;2178806;81;21297;-70
2021/03/10 02:56:20;;;;;;;95.62;29.45;;;;;;;-6.14;66.41;99264.72;2178812;81;21586;-69
2021/03/10 02:59:22;;;;;;;96.85;30.68;;;;;;;-6.13;66.39;99264.73;2178620;81;21900;-70
2021/03/10 03:02:24;;;;;;;101.82;31.68;;;;;;;-6.13;66.30;99268.99;2178497;81;21138;-65
2021/03/10 03:05:26;;;;;;;92.50;29.55;;;;;;;-6.16;66.31;99264.70;2178511;81;21297;-65
2021/03/10 03:08:28;;;;;;;81.57;25.32;;;;;;;-6.10;66.11;99261.37;2178647;81;21783;-64
2021/03/10 03:11:30;;;;;;;82.42;26.10;;;;;;;-6.08;66.08;99266.06;2150630;82;21103;-67
2021/03/10 03:14:33;;;;;;;68.65;24.18;;;;;;;-6.33;66.11;99253.40;2178625;81;21288;-64
2021/03/10 03:17:35;;;;;;;82.62;25.50;;;;;;;-6.33;66.11;99253.40;2178341;81;21745;-65
2021/03/10 03:20:37;;;;;;;62.38;22.27;;;;;;;-6.33;65.96;99269.56;2178486;81;21331;-65
2021/03/10 03:23:39;;;;;;;64.55;21.82;;;;;;;-6.37;66.18;99260.57;2178791;81;21278;-67
2021/03/10 03:26:41;;;;;;;55.20;20.95;;;;;;;-6.39;66.10;99260.95;2150793;82;21280;-65
2021/03/10 03:29:43;;;;;;;53.05;20.55;;;;;;;-6.52;66.01;99263.74;2178474;81;21253;-67
2021/03/10 03:32:45;;;;;;;51.77;19.12;;;;;;;-6.68;66.30;99264.81;2150875;82;21285;-68
2021/03/10 03:35:47;;;;;;;55.00;20.37;;;;;;;-6.76;67.00;99265.53;2178510;81;21717;-66
2021/03/10 03:38:49;;;;;;;57.88;20.97;;;;;;;-6.83;66.95;99267.11;2178486;81;21292;-65
2021/03/10 03:41:52;;;;;;;67.78;22.58;;;;;;;-6.89;66.94;99271.70;2178466;81;21268;-68
2021/03/10 03:44:54;;;;;;;70.15;23.40;;;;;;;-6.91;66.95;99272.50;2174020;81;21587;-66
2021/03/10 03:47:56;;;;;;;70.78;27.05;;;;;;;-6.92;66.96;99270.77;2161049;82;21602;-66
2021/03/10 03:50:58;;;;;;;72.08;28.67;;;;;;;-6.93;66.75;99274.18;2161056;82;21683;-65
2021/03/10 03:54:00;;;;;;;78.07;26.80;;;;;;;-6.97;66.88;99273.25;2161035;82;21594;-64
2021/03/10 03:57:02;;;;;;;63.70;22.00;;;;;;;-6.90;66.98;99271.25;2161055;82;21602;-67
2021/03/10 04:00:04;;;;;;;81.40;28.57;;;;;;;-6.87;66.89;99271.72;2161103;82;21717;-65
2021/03/10 04:03:06;;;;;;;84.58;29.25;;;;;;;-6.85;66.59;99274.75;2161165;82;21717;-67
2021/03/10 04:06:08;;;;;;;72.20;26.75;;;;;;;-6.92;66.76;99279.30;2161160;82;21760;-66
2021/03/10 04:09:10;;;;;;;62.62;25.05;;;;;;;-6.86;66.66;99278.55;2161187;82;21698;-67
2021/03/10 04:12:12;;;;;;;56.73;21.23;;;;;;;-6.91;66.78;99273.77;2160981;82;21167;-68
2021/03/10 04:15:14;;;;;;;61.42;22.67;;;;;;;-6.97;66.62;99274.13;2161159;82;21286;-66
2021/03/10 04:18:16;;;;;;;69.42;22.95;;;;;;;-6.99;66.53;99282.16;2140093;82;21721;-69
2021/03/10 04:21:18;;;;;;;57.15;21.80;;;;;;;-7.01;66.77;99281.29;2161061;82;21163;-69
2021/03/10 04:24:20;;;;;;;58.45;21.60;;;;;;;-7.06;66.66;99287.98;2161290;82;21315;-69
2021/03/10 04:27:22;;;;;;;55.65;19.65;;;;;;;-7.16;66.70;99284.84;2161384;82;21285;-71
2021/03/10 04:30:24;;;;;;;61.35;20.37;;;;;;;-7.21;66.91;99284.77;2161349;82;21282;-70
2021/03/10 04:33:26;;;;;;;54.27;18.12;;;;;;;-7.18;66.61;99287.36;2161367;82;21281;-70
2021/03/10 04:36:28;;;;;;;70.40;24.35;;;;;;;-7.20;66.66;99291.56;2160984;82;21167;-64
2021/03/10 04:39:30;;;;;;;75.87;24.82;;;;;;;-7.19;66.91;99289.46;2160885;82;21143;-63
2021/03/10 04:42:32;;;;;;;72.37;24.15;;;;;;;-7.18;67.02;99291.62;2161164;82;21567;-64
2021/03/10 04:45:34;;;;;;;64.17;23.65;;;;;;;-7.17;67.11;99289.09;2167300;81;21309;-65
2021/03/10 04:48:36;;;;;;;67.12;23.12;;;;;;;-7.06;67.00;99287.98;2178490;81;21713;-64
2021/03/10 04:51:38;;;;;;;54.53;19.32;;;;;;;-7.01;67.01;99282.95;2178449;81;21300;-65
2021/03/10 04:54:40;;;;;;;;;;;;;;;-6.94;66.81;99283.94;2180909;81;21127;-65
2021/03/10 04:57:42;;;;;;;53.60;18.90;;;;;;;-6.92;66.71;99279.30;2178662;82;20527;-64
2021/03/10 05:00:44;;;;;;;54.33;20.08;;;;;;;-6.91;66.76;99277.20;2178619;81;21725;-65
2021/03/10 05:03:46;;;;;;;48.05;17.15;;;;;;;-6.89;66.82;99283.61;2178881;81;21284;-65
2021/03/10 05:06:48;;;;;;;55.30;20.15;;;;;;;-6.90;66.67;99280.17;2178922;81;21178;-69
2021/03/10 05:09:51;;;;;;;63.70;20.52;;;;;;;-6.94;66.70;99280.11;2178623;81;21554;-68
2021/03/10 05:12:53;;;;;;;50.85;19.67;;;;;;;-6.96;66.67;99278.38;2151068;82;21289;-66
2021/03/10 05:15:55;;;;;;;49.73;19.37;;;;;;;-6.99;66.51;99285.98;2178658;81;21265;-64
2021/03/10 05:18:57;;;;;;;52.35;19.50;;;;;;;-6.99;66.51;99283.44;2178645;81;21285;-67
2021/03/10 05:21:59;;;;;;;52.17;20.48;;;;;;;-6.97;66.57;99279.63;2178705;81;21276;-65
2021/03/10 05:25:01;;;;;;;52.08;19.70;;;;;;;-6.88;66.62;99283.63;2178642;81;21281;-69
2021/03/10 05:28:03;;;;;;;59.15;20.97;;;;;;;-6.84;66.63;99285.80;2178601;81;21273;-70
2021/03/10 05:31:05;;;;;;;60.95;19.82;;;;;;;-6.82;66.81;99285.42;2178561;81;21285;-68
2021/03/10 05:34:07;;;;;;;62.38;23.12;;;;;;;-6.79;66.85;99290.14;2178717;81;21280;-69
2021/03/10 05:37:09;;;;;;;66.15;24.75;;;;;;;-6.62;67.26;99295.52;2178581;81;21320;-69
2021/03/10 05:40:11;;;;;;;56.90;19.77;;;;;;;-6.32;67.30;99295.55;2178561;81;21297;-67
2021/03/10 05:43:13;;;;;;;63.15;21.45;;;;;;;-6.07;66.93;99297.16;2178622;81;21289;-69
2021/03/10 05:46:15;;;;;;;65.35;23.73;;;;;;;-5.89;66.94;99291.38;2178580;81;21288;-66
2021/03/10 05:49:17;;;;;;;67.67;22.58;;;;;;;-5.72;66.66;99294.16;2178627;81;21134;-67
2021/03/10 05:52:19;;;;;;;66.12;24.27;;;;;;;-5.60;66.46;99293.03;2178708;81;21304;-65
2021/03/10 05:55:21;;;;;;;66.17;24.32;;;;;;;-5.53;66.46;99285.42;2178846;81;21307;-70
2021/03/10 05:58:23;;;;;;;62.13;22.13;;;;;;;-5.35;66.83;99287.34;2178587;81;21284;-69
2021/03/10 06:01:25;;;;;;;64.62;24.92;;;;;;;-4.97;66.75;99284.28;2178750;81;21337;-69
2021/03/10 06:04:28;;;;;;;61.73;24.55;;;;;;;-4.65;66.48;99288.84;2178613;81;21285;-70
2021/03/10 06:07:30;;;;;;;61.08;22.42;;;;;;;-4.55;65.95;99288.06;2178469;81;21276;-70
2021/03/10 06:10:32;;;;;;;64.15;23.20;;;;;;;-4.53;66.04;99292.33;2178513;81;21126;-68
2021/03/10 06:13:34;;;;;;;58.20;23.12;;;;;;;-4.31;66.10;99298.91;2178588;81;21138;-67
2021/03/10 06:16:36;;;;;;;63.73;23.32;;;;;;;-4.02;66.21;99304.63;2178584;81;21285;-67
2021/03/10 06:19:38;;;;;;;57.98;23.47;;;;;;;-3.69;65.98;99309.06;2178968;81;21308;-68
2021/03/10 06:22:40;;;;;;;58.75;23.02;;;;;;;-3.53;65.62;99304.84;2178585;81;21272;-68
2021/03/10 06:25:42;;;;;;;57.45;22.40;;;;;;;-3.45;65.11;99306.58;2178577;81;21296;-68
2021/03/10 06:28:44;;;;;;;59.88;22.62;;;;;;;-3.28;65.65;99307.48;2178864;81;21138;-68
2021/03/10 06:31:46;;;;;;;58.95;22.50;;;;;;;-2.96;65.26;99313.10;2178569;81;21265;-65
2021/03/10 06:34:48;;;;;;;58.55;22.75;;;;;;;-2.85;64.84;99315.70;2178587;81;21280;-65
2021/03/10 06:37:50;;;;;;;54.55;22.73;;;;;;;-2.71;64.96;99317.85;2178581;81;21277;-65
2021/03/10 06:40:52;;;;;;;60.15;26.60;;;;;;;-2.41;64.91;99317.84;2179338;81;21776;-66
2021/03/10 06:43:54;;;;;;;66.30;27.42;;;;;;;-2.01;64.34;99316.50;2178754;81;21709;-65
2021/03/10 06:46:56;;;;;;;63.17;26.97;;;;;;;-1.72;64.11;99325.44;2178461;81;21749;-65
2021/03/10 06:49:58;;;;;;;61.50;26.20;;;;;;;-1.47;63.45;99330.05;2178626;81;21300;-65
2021/03/10 06:53:00;;;;;;;61.42;25.48;;;;;;;-1.51;63.24;99341.21;2178570;81;21268;-65
2021/03/10 06:56:02;;;;;;;175.57;61.63;;;;;;;-1.41;63.38;99336.89;2178639;81;21272;-66
2021/03/10 06:59:04;;;;;;;64.80;27.45;;;;;;;-1.18;63.64;99334.20;2178522;81;21276;-67
2021/03/10 07:02:06;;;;;;;73.52;26.07;;;;;;;-0.87;62.96;99329.73;2178493;81;21126;-66
2021/03/10 07:05:09;;;;;;;58.55;23.27;;;;;;;-0.53;62.24;99331.23;2178715;81;21574;-66
2021/03/10 07:08:11;;;;;;;57.00;24.80;;;;;;;-0.37;61.57;99338.41;2178500;81;21272;-66
2021/03/10 07:11:13;;;;;;;57.00;25.35;;;;;;;-0.23;61.77;99344.71;2178524;81;21253;-66
2021/03/10 07:14:15;;;;;;;58.45;25.45;;;;;;;-0.02;61.71;99342.38;2178526;81;21277;-68
2021/03/10 07:17:17;;;;;;;63.17;25.32;;;;;;;0.17;61.36;99344.33;2178544;82;21309;-66
2021/03/10 07:20:20;;;;;;;62.40;26.93;;;;;;;0.35;60.80;99343.30;2178675;82;21717;-69
2021/03/10 07:23:22;;;;;;;60.03;24.70;;;;;;;0.68;61.22;99338.61;2178491;81;21288;-68
2021/03/10 07:26:25;;;;;;;63.92;26.37;;;;;;;0.92;60.69;99341.73;2178393;81;21301;-67
2021/03/10 07:29:27;;;;;;;64.55;26.95;;;;;;;1.04;60.23;99344.16;2178847;81;21280;-66
2021/03/10 07:32:29;;;;;;;60.40;25.57;;;;;;;1.09;60.17;99340.20;2178518;81;21272;-67
2021/03/10 07:35:31;;;;;;;57.62;25.30;;;;;;;1.13;59.82;99340.59;2178505;81;21292;-66
2021/03/10 07:38:32;;;;;;;58.30;24.12;;;;;;;1.37;59.57;99344.09;2178688;81;21301;-66
2021/03/10 07:41:34;;;;;;;57.93;24.85;;;;;;;1.52;59.59;99345.61;2178462;81;21280;-66
2021/03/10 07:44:36;;;;;;;66.10;28.65;;;;;;;1.73;59.14;99345.67;2178517;81;21268;-69
2021/03/10 07:47:38;;;;;;;58.45;25.35;;;;;;;1.89;58.80;99346.27;2164484;81;21182;-66
2021/03/10 07:50:40;;;;;;;63.52;26.07;;;;;;;1.99;58.83;99353.88;2161133;82;21143;-67
2021/03/10 07:53:42;;;;;;;61.30;26.33;;;;;;;2.16;58.91;99351.84;2161090;82;21559;-66
2021/03/10 07:56:45;;;;;;;60.33;26.20;;;;;;;2.41;58.70;99356.55;2160982;82;21599;-66
2021/03/10 07:59:47;;;;;;;62.78;26.62;;;;;;;2.57;58.18;99359.69;2140021;82;21297;-67
2021/03/10 08:02:50;;;;;;;61.90;26.37;;;;;;;2.72;56.88;99351.62;2161083;82;21745;-67
2021/03/10 08:05:53;;;;;;;54.48;23.77;;;;;;;2.74;56.84;99351.59;2160948;82;21167;-70
2021/03/10 08:08:55;;;;;;;53.73;23.27;;;;;;;2.81;56.33;99347.98;2161074;82;21154;-67
2021/03/10 08:11:57;;;;;;;52.50;23.32;;;;;;;2.90;55.99;99355.58;2161045;82;21602;-67
2021/03/10 08:14:59;;;;;;;54.90;24.35;;;;;;;3.14;55.75;99353.33;2161098;82;21131;-68
2021/03/10 08:18:01;;;;;;;55.15;23.50;;;;;;;3.45;55.74;99355.23;2161162;82;21139;-67
2021/03/10 08:21:03;;;;;;;51.13;22.98;;;;;;;3.44;55.38;99351.77;2161492;82;21168;-68
2021/03/10 08:24:05;;;;;;;55.00;22.85;;;;;;;3.14;53.08;99362.40;2161075;82;21598;-66
2021/03/10 08:27:10;;;;;;;46.83;19.12;;;;;;;3.04;53.75;99363.49;2161034;82;21136;-68
2021/03/10 08:30:13;;;;;;;49.38;20.10;;;;;;;3.09;52.96;99355.19;2160830;82;21142;-70
2021/03/10 08:33:20;;;;;;;72.72;26.60;;;;;;;3.30;54.49;99360.31;2161054;82;21277;-69
2021/03/10 08:36:23;;;;;;;49.10;20.17;;;;;;;3.59;54.10;99363.97;2161192;82;21697;-68
2021/03/10 08:39:25;;;;;;;47.75;19.50;;;;;;;3.87;52.96;99363.31;2160940;82;21313;-67
2021/03/10 08:42:27;;;;;;;53.23;22.13;;;;;;;3.95;51.78;99360.05;2161032;82;21142;-67
2021/03/10 08:45:29;;;;;;;41.88;18.62;;;;;;;3.98;52.56;99355.66;2161027;82;21128;-70
2021/03/10 08:48:31;;;;;;;42.98;19.32;;;;;;;4.24;46.80;99371.43;2178198;81;21293;-69
2021/03/10 08:51:33;;;;;;;46.10;18.20;;;;;;;3.90;49.16;99362.77;2178412;81;21139;-70
2021/03/10 08:54:35;;;;;;;29.50;9.85;;;;;;;3.86;50.62;99362.44;2178805;81;21285;-70
2021/03/10 08:57:37;;;;;;;35.80;13.13;;;;;;;3.78;48.42;99362.64;2178481;81;21544;-68
2021/03/10 09:00:39;;;;;;;28.83;10.50;;;;;;;4.13;47.50;99359.59;2178370;82;21284;-67
2021/03/10 09:03:41;;;;;;;29.18;10.82;;;;;;;4.01;47.31;99367.70;2178533;81;21285;-66
2021/03/10 09:06:43;;;;;;;37.45;12.58;;;;;;;3.97;47.82;99363.02;2178465;81;21273;-66
2021/03/10 09:09:45;;;;;;;33.42;13.50;;;;;;;4.05;48.37;99360.25;2150576;82;21304;-67
2021/03/10 09:12:48;;;;;;;30.48;11.75;;;;;;;4.43;49.72;99355.77;2178667;82;21308;-66
2021/03/10 09:15:50;;;;;;;34.23;14.00;;;;;;;4.74;47.60;99346.26;2178512;81;21713;-67
2021/03/10 09:18:52;;;;;;;24.50;7.85;;;;;;;5.08;47.47;99348.71;2178612;81;21769;-67
2021/03/10 09:21:54;;;;;;;25.30;8.53;;;;;;;5.38;42.78;99351.28;2178517;81;21257;-68
2021/03/10 09:24:56;;;;;;;24.72;8.60;;;;;;;5.04;43.64;99345.80;2178437;82;21288;-67
2021/03/10 09:27:58;;;;;;;25.40;8.55;;;;;;;5.34;45.98;99342.73;2178457;81;21296;-67
2021/03/10 09:31:00;;;;;;;23.85;7.80;;;;;;;5.70;45.12;99348.09;2178771;82;21284;-67
2021/03/10 09:34:02;;;;;;;28.73;9.03;;;;;;;5.83;43.33;99340.73;2178701;81;21305;-68
2021/03/10 09:37:04;;;;;;;26.60;9.53;;;;;;;5.79;40.85;99337.83;2178437;81;21264;-68
2021/03/10 09:40:06;;;;;;;27.13;10.35;;;;;;;5.89;44.69;99348.36;2178380;81;21280;-66
2021/03/10 09:43:08;;;;;;;27.70;9.30;;;;;;;6.14;42.85;99343.17;2178388;81;21320;-67
2021/03/10 09:46:10;;;;;;;25.97;9.55;;;;;;;6.33;43.18;99343.84;2176613;81;21374;-68
2021/03/10 09:49:12;;;;;;;28.27;11.22;;;;;;;6.44;42.16;99339.10;2161299;82;21289;-67
2021/03/10 09:52:14;;;;;;;26.25;9.85;;;;;;;6.67;43.12;99339.57;2161203;82;21750;-67
2021/03/10 09:55:19;;;;;;;28.02;10.58;;;;;;;6.83;39.05;99330.72;2161192;82;21713;-70
2021/03/10 09:58:21;;;;;;;28.55;10.08;;;;;;;6.81;41.47;99338.20;2161312;82;21290;-66
2021/03/10 10:01:23;;;;;;;27.67;10.08;;;;;;;6.73;38.83;99335.89;2161158;82;21282;-70
2021/03/10 10:04:25;;;;;;;28.32;9.93;;;;;;;6.66;40.57;99336.55;2161198;82;21104;-72
2021/03/10 10:07:27;;;;;;;30.90;10.53;;;;;;;6.85;40.28;99337.18;2161151;82;21135;-68
2021/03/10 10:10:29;;;;;;;31.75;11.90;;;;;;;6.97;40.35;99338.03;2161076;82;21158;-70
2021/03/10 10:13:31;;;;;;;28.77;9.80;;;;;;;7.09;37.26;99330.19;2161056;82;21115;-71
2021/03/10 10:16:33;;;;;;;30.08;10.88;;;;;;;7.27;40.38;99337.77;2161301;82;21706;-68
2021/03/10 10:19:35;;;;;;;31.12;11.68;;;;;;;7.54;38.86;99334.95;2161095;82;21163;-67
2021/03/10 10:22:37;;;;;;;25.88;9.28;;;;;;;7.84;39.39;99347.20;2161270;82;21312;-66
2021/03/10 10:25:39;;;;;;;27.58;10.15;;;;;;;7.56;36.86;99341.81;2161167;82;21606;-66
2021/03/10 10:28:41;;;;;;;31.23;9.90;;;;;;;7.10;37.26;99342.33;2161270;82;21289;-67
2021/03/10 10:31:43;;;;;;;28.73;9.98;;;;;;;6.53;35.87;99347.88;2140007;82;21285;-68
2021/03/10 10:34:45;;;;;;;27.65;9.15;;;;;;;6.04;35.70;99360.03;2161165;82;21282;-67
2021/03/10 10:37:47;;;;;;;27.80;9.38;;;;;;;5.62;38.02;99357.46;2161477;82;21301;-67
2021/03/10 10:40:49;;;;;;;24.90;9.50;;;;;;;5.51;38.16;99363.45;2161101;82;21170;-67
2021/03/10 10:43:51;;;;;;;27.13;8.75;;;;;;;5.32;38.03;99365.33;2161150;82;21150;-67
2021/03/10 10:46:53;;;;;;;27.35;9.45;;;;;;;4.86;35.95;99362.81;2165661;82;21293;-67
2021/03/10 10:49:57;;;;;;;26.93;9.10;;;;;;;4.56;35.65;99361.48;2178267;82;21064;-66
2021/03/10 10:52:58;;;;;;;27.30;10.08;;;;;;;4.47;37.97;99365.64;2178532;81;21293;-68
2021/03/10 10:56:00;;;;;;;28.65;10.20;;;;;;;4.41;37.25;99367.09;2178628;81;21115;-68
2021/03/10 10:59:02;;;;;;;27.62;9.35;;;;;;;4.24;36.77;99364.94;2178523;81;21329;-69
2021/03/10 11:02:04;;;;;;;30.15;9.68;;;;;;;4.29;38.49;99369.12;2178554;81;21273;-70
2021/03/10 11:05:06;;;;;;;28.80;10.32;;;;;;;4.46;37.42;99367.83;2178862;81;21111;-71
2021/03/10 11:08:11;;;;;;;27.45;9.70;;;;;;;4.57;37.82;99367.09;2178528;81;21689;-68
2021/03/10 11:11:13;;;;;;;28.00;10.50;;;;;;;4.74;38.02;99358.83;2178611;81;21697;-68
2021/03/10 11:14:15;;;;;;;27.27;10.20;;;;;;;4.88;38.31;99361.47;2178549;81;21277;-68
2021/03/10 11:17:17;;;;;;;27.15;9.93;;;;;;;5.23;38.63;99360.42;2178549;81;21174;-70
2021/03/10 11:20:20;;;;;;;28.40;9.85;;;;;;;5.52;38.56;99360.80;2178483;81;21285;-70
2021/03/10 11:23:22;;;;;;;31.20;11.12;;;;;;;6.09;38.32;99358.10;2178503;82;21292;-68
2021/03/10 11:26:23;;;;;;;29.07;11.08;;;;;;;6.50;37.75;99353.20;2178529;81;21276;-71
2021/03/10 11:29:25;;;;;;;27.87;9.95;;;;;;;6.72;37.80;99343.30;2150677;82;21700;-70
2021/03/10 11:32:28;;;;;;;27.27;10.10;;;;;;;6.86;35.23;99351.46;2178695;81;21304;-68
2021/03/10 11:35:30;;;;;;;26.90;10.00;;;;;;;6.63;34.53;99341.05;2178627;82;21280;-69
2021/03/10 11:38:32;;;;;;;27.65;10.32;;;;;;;6.68;34.31;99329.55;2150614;82;21269;-68
2021/03/10 11:41:34;;;;;;;29.20;10.63;;;;;;;6.73;33.57;99330.67;2150766;82;21273;-68
2021/03/10 11:44:36;;;;;;;28.32;10.40;;;;;;;7.13;35.77;99333.08;2178499;81;21277;-67
2021/03/10 11:47:38;;;;;;;26.73;10.13;;;;;;;7.70;35.65;99335.17;2178733;81;21327;-68
2021/03/10 11:50:40;;;;;;;30.82;10.28;;;;;;;8.13;35.10;99335.98;2178433;81;21272;-68
2021/03/10 11:53:42;;;;;;;26.68;10.28;;;;;;;7.94;33.65;99339.40;2178506;81;21293;-67
2021/03/10 11:56:44;;;;;;;25.00;9.78;;;;;;;7.76;31.60;99338.86;2178857;81;21143;-67
2021/03/10 11:59:46;;;;;;;24.98;10.03;;;;;;;7.53;34.24;99336.72;2178372;81;21585;-68
2021/03/10 12:02:48;;;;;;;27.73;10.63;;;;;;;7.73;34.55;99329.81;2178483;81;21581;-67
2021/03/10 12:05:50;;;;;;;25.65;10.38;;;;;;;8.25;34.48;99327.63;2178503;81;21304;-68
2021/03/10 12:08:52;;;;;;;27.20;9.83;;;;;;;8.07;33.22;99330.55;2150684;82;21749;-67
2021/03/10 12:11:54;;;;;;;26.35;10.00;;;;;;;7.85;33.16;99322.79;2178467;81;21728;-67
2021/03/10 12:14:56;;;;;;;25.40;9.95;;;;;;;7.42;33.33;99333.69;2178480;81;21720;-67
2021/03/10 12:17:58;;;;;;;27.55;9.95;;;;;;;7.09;32.75;99334.09;2178470;81;21737;-67
2021/03/10 12:21:00;;;;;;;22.52;8.35;;;;;;;6.94;33.41;99332.94;2178404;81;21720;-67
2021/03/10 12:24:02;;;;;;;23.35;7.80;;;;;;;6.46;31.67;99337.74;2178561;81;21293;-68
2021/03/10 12:27:07;;;;;;;23.62;8.20;;;;;;;5.68;31.17;99337.73;2178561;81;21729;-66
2021/03/10 12:30:09;;;;;;;25.25;8.78;;;;;;;5.12;32.69;99329.53;2178382;81;21281;-70
2021/03/10 12:33:12;;;;;;;24.50;9.20;;;;;;;4.86;34.03;99325.13;2178581;81;21728;-69
2021/03/10 12:36:14;;;;;;;25.45;8.83;;;;;;;4.76;34.35;99326.29;2178336;81;21292;-69
2021/03/10 12:39:16;;;;;;;25.35;8.85;;;;;;;4.72;34.81;99329.41;2178431;81;21296;-69
2021/03/10 12:42:18;;;;;;;25.95;9.88;;;;;;;4.74;33.03;99331.53;2178470;81;21296;-68
2021/03/10 12:45:21;;;;;;;30.23;9.78;;;;;;;4.90;33.00;99333.66;2178575;81;21721;-69
2021/03/10 12:48:23;;;;;;;;;;;;;;;5.34;32.64;99324.95;2170829;81;21297;-67
2021/03/10 12:51:25;;;;;;;25.37;9.08;;;;;;;5.66;32.13;99331.73;2160969;82;20532;-68
2021/03/10 12:54:27;;;;;;;27.58;9.65;;;;;;;6.14;33.26;99313.23;2161029;82;21338;-68
2021/03/10 12:57:29;;;;;;;25.37;9.80;;;;;;;6.70;33.49;99305.56;2161053;82;21119;-68
2021/03/10 13:00:31;;;;;;;23.57;9.28;;;;;;;7.20;31.54;99299.78;2161419;82;21155;-67
2021/03/10 13:03:33;;;;;;;24.50;9.33;;;;;;;7.20;31.54;99295.86;2161383;82;21325;-68
2021/03/10 13:06:35;;;;;;;25.50;9.58;;;;;;;7.51;32.93;99295.45;2161154;82;21274;-67
2021/03/10 13:09:37;;;;;;;26.57;10.15;;;;;;;8.09;32.29;99292.16;2161027;82;21175;-67
2021/03/10 13:12:39;;;;;;;27.35;10.68;;;;;;;8.57;32.34;99294.00;2161037;82;21587;-67
2021/03/10 13:15:41;;;;;;;23.15;8.88;;;;;;;9.07;31.03;99295.20;2161140;82;21144;-67
2021/03/10 13:18:43;;;;;;;25.40;9.28;;;;;;;8.92;29.22;99301.15;2161182;82;21718;-68
2021/03/10 13:21:46;;;;;;;24.15;9.00;;;;;;;8.42;29.42;99302.49;2161215;82;21290;-67
2021/03/10 13:24:48;;;;;;;24.50;9.08;;;;;;;7.70;29.03;99298.61;2161146;82;21780;-67
2021/03/10 13:27:50;;;;;;;24.70;9.73;;;;;;;6.56;29.41;99306.53;2161294;82;21275;-67
2021/03/10 13:30:52;;;;;;;24.10;9.30;;;;;;;5.68;30.11;99310.86;2161300;82;21701;-67
2021/03/10 13:33:55;;;;;;;24.87;9.05;;;;;;;5.05;30.93;99317.61;2161082;82;21717;-67
2021/03/10 13:36:57;;;;;;;24.65;8.75;;;;;;;4.63;31.93;99315.40;2161206;82;21282;-68
2021/03/10 13:39:59;;;;;;;25.52;9.20;;;;;;;4.30;33.46;99318.05;2161168;82;21292;-67
2021/03/10 13:43:01;;;;;;;25.32;9.00;;;;;;;4.21;33.09;99314.39;2161211;82;21273;-67
2021/03/10 13:46:03;;;;;;;24.85;9.33;;;;;;;4.16;33.54;99316.66;2161195;82;21265;-67
2021/03/10 13:49:05;;;;;;;24.85;9.33;;;;;;;4.26;33.52;99302.14;2173446;81;21280;-67
2021/03/10 13:52:07;;;;;;;27.22;9.05;;;;;;;4.25;33.15;99301.30;2178828;81;21332;-68
2021/03/10 13:55:09;;;;;;;21.57;8.20;;;;;;;4.59;33.69;99299.49;2178618;81;21304;-67
2021/03/10 13:58:11;;;;;;;24.27;8.50;;;;;;;5.24;34.16;99294.48;2178723;81;21292;-67
2021/03/10 14:01:13;;;;;;;26.65;9.48;;;;;;;5.71;33.47;99289.47;2178588;81;21304;-69
2021/03/10 14:04:15;;;;;;;23.18;9.58;;;;;;;6.21;33.24;99293.03;2178694;82;21534;-70